Leroy, North Dakota
Current Conditions -  °F | °C
As of 6:55 PM on Monday 22 Dec 2014 (Local Time) from K2C8 Reporting Station
Unknown Precip Unknown Precip  
Wind Chill: 27°   Ceiling: 200
Heat Index: 34°   Visibility: 1mi
Dew Point: 34°   Wind: 8mph
Humidity: 100%   Direction: 30°NNE
Pressure: 29.71"   Gusts: NA
Location:  48.9026°N, 97.8187°W
Report Text: K2C8 230055Z AUTO 03007KT 1SM UP OVC002 01/01 A2971 RMK AO2
Loading
Personal Weather Stations






























Interactive Weather Map New forecast layout! Learn more

10-Day Weather Forecast

Advertisements
Track Severe Weather on mobile